Time;durP1;ratioP1;P1;durP2;ratioP2;P2;SDS_P1;SDS_P2;PMS_P1;PMS_P2;Temp;Humidity;BMP_temperature;BMP_pressure;BME280_temperature;BME280_humidity;BME280_pressure;Samples;Min_cycle;Max_cycle;Signal;HPM_P1;HPM_P2
2023/07/23 00:00:34;;;;;;;40.20;18.50;;;;;;;;;;5021140;28;20028;-72
2023/07/23 00:02:59;;;;;;;43.13;18.13;;;;;;;;;;5018760;28;20029;-71
2023/07/23 00:05:24;;;;;;;43.67;20.02;;;;;;;;;;5019681;28;20037;-72
2023/07/23 00:07:56;;;;;;;31.75;16.95;;;;;;;;;;5017728;28;20037;-71
2023/07/23 00:10:21;;;;;;;49.80;19.80;;;;;;;;;;5020684;28;20045;-72
2023/07/23 00:12:47;;;;;;;56.17;23.73;;;;;;;;;;5022005;28;20037;-72
2023/07/23 00:15:12;;;;;;;32.33;16.77;;;;;;;;;;5018989;28;20033;-72
2023/07/23 00:17:39;;;;;;;32.15;16.92;;;;;;;;;;5021018;28;20061;-71
2023/07/23 00:20:04;;;;;;;43.95;19.90;;;;;;;;;;5020981;28;20033;-72
2023/07/23 00:22:30;;;;;;;40.53;19.85;;;;;;;;;;5018051;28;20520;-72
2023/07/23 00:24:58;;;;;;;24.48;13.88;;;;;;;;;;5018579;28;20037;-73
2023/07/23 00:27:23;;;;;;;25.33;13.43;;;;;;;;;;5035516;28;20067;-71
2023/07/23 00:29:49;;;;;;;24.58;13.57;;;;;;;;;;5051017;28;20045;-73
2023/07/23 00:32:14;;;;;;;22.33;13.80;;;;;;;;;;5019761;28;20049;-72
2023/07/23 00:34:40;;;;;;;19.17;11.75;;;;;;;;;;5019535;28;20547;-73
2023/07/23 00:37:05;;;;;;;22.60;13.32;;;;;;;;;;5020885;28;20120;-71
2023/07/23 00:39:30;;;;;;;23.13;12.85;;;;;;;;;;5020268;28;20036;-71
2023/07/23 00:41:56;;;;;;;28.95;14.10;;;;;;;;;;5020115;28;20095;-71
2023/07/23 00:44:21;;;;;;;21.90;13.35;;;;;;;;;;5020555;28;20067;-71
2023/07/23 00:46:47;;;;;;;20.80;11.27;;;;;;;;;;5019198;28;20493;-73
2023/07/23 00:49:14;;;;;;;21.75;12.75;;;;;;;;;;5019159;28;20048;-72
2023/07/23 00:51:40;;;;;;;26.00;17.80;;;;;;;;;;5014268;28;20033;-72
2023/07/23 00:54:08;;;;;;;26.48;15.00;;;;;;;;;;5021552;28;20555;-72
2023/07/23 00:56:35;;;;;;;25.45;13.63;;;;;;;;;;5018839;28;20033;-73
2023/07/23 00:59:00;;;;;;;20.98;13.77;;;;;;;;;;5019871;28;20044;-73
2023/07/23 01:01:26;;;;;;;25.95;14.15;;;;;;;;;;5048068;28;20037;-73
2023/07/23 01:03:53;;;;;;;24.25;14.98;;;;;;;;;;5019291;28;20082;-71
2023/07/23 01:06:19;;;;;;;23.63;12.77;;;;;;;;;;5019197;28;20037;-73
2023/07/23 01:08:47;;;;;;;19.55;12.93;;;;;;;;;;5019900;28;20145;-72
2023/07/23 01:11:13;;;;;;;28.80;15.60;;;;;;;;;;5019523;28;20052;-74
2023/07/23 01:13:39;;;;;;;24.35;15.10;;;;;;;;;;5020399;28;22190;-71
2023/07/23 01:16:07;;;;;;;23.15;13.55;;;;;;;;;;5019577;28;20033;-70
2023/07/23 01:18:41;;;;;;;22.20;13.35;;;;;;;;;;5017274;28;21164;-72
2023/07/23 01:21:09;;;;;;;24.02;12.73;;;;;;;;;;5018241;28;20050;-73
2023/07/23 01:23:35;;;;;;;21.40;12.05;;;;;;;;;;5019306;28;20045;-72
2023/07/23 01:26:00;;;;;;;21.83;12.70;;;;;;;;;;5033191;28;20033;-70
2023/07/23 01:28:25;;;;;;;20.17;12.40;;;;;;;;;;5018903;28;20501;-70
2023/07/23 01:30:54;;;;;;;24.45;14.20;;;;;;;;;;5019371;28;20110;-71
2023/07/23 01:33:22;;;;;;;23.75;13.30;;;;;;;;;;5019125;28;20124;-73
2023/07/23 01:35:50;;;;;;;25.15;13.20;;;;;;;;;;5014950;28;20427;-69
2023/07/23 01:38:16;;;;;;;20.65;12.98;;;;;;;;;;5019989;28;20064;-71
2023/07/23 01:40:42;;;;;;;23.67;12.48;;;;;;;;;;5050595;28;20940;-73
2023/07/23 01:43:07;;;;;;;19.65;13.10;;;;;;;;;;5018436;28;20063;-74
2023/07/23 01:45:32;;;;;;;27.35;14.13;;;;;;;;;;5020849;28;20025;-71
2023/07/23 01:48:00;;;;;;;32.45;16.15;;;;;;;;;;5018935;28;20082;-72
2023/07/23 01:50:27;;;;;;;36.83;21.10;;;;;;;;;;5047095;28;20079;-72
2023/07/23 01:52:53;;;;;;;37.92;23.13;;;;;;;;;;4998954;28;20034;-73
2023/07/23 01:55:18;;;;;;;29.27;16.25;;;;;;;;;;4999443;28;20270;-74
2023/07/23 01:57:44;;;;;;;32.13;17.95;;;;;;;;;;5001940;28;20534;-70
2023/07/23 02:00:10;;;;;;;34.45;15.75;;;;;;;;;;5003864;28;20065;-71
2023/07/23 02:02:37;;;;;;;33.20;14.43;;;;;;;;;;5006843;28;20069;-70
2023/07/23 02:05:03;;;;;;;20.73;13.00;;;;;;;;;;5017502;28;20033;-71
2023/07/23 02:07:28;;;;;;;25.02;14.10;;;;;;;;;;5003476;28;20076;-74
2023/07/23 02:09:53;;;;;;;35.33;17.27;;;;;;;;;;5033506;28;20064;-73
2023/07/23 02:12:21;;;;;;;22.08;13.10;;;;;;;;;;5001177;28;20033;-70
2023/07/23 02:14:47;;;;;;;28.63;14.20;;;;;;;;;;5007776;28;20076;-70
2023/07/23 02:17:12;;;;;;;29.40;15.50;;;;;;;;;;5020434;28;20033;-69
2023/07/23 02:19:37;;;;;;;29.63;14.80;;;;;;;;;;5019312;28;20042;-72
2023/07/23 02:22:05;;;;;;;22.15;15.13;;;;;;;;;;5022087;28;20033;-70
2023/07/23 02:24:30;;;;;;;32.97;17.38;;;;;;;;;;5018994;28;20066;-72
2023/07/23 02:26:55;;;;;;;30.92;16.05;;;;;;;;;;5021311;28;20032;-70
2023/07/23 02:29:20;;;;;;;30.65;16.73;;;;;;;;;;5024631;28;20059;-71
2023/07/23 02:31:46;;;;;;;31.25;16.67;;;;;;;;;;5015933;28;20430;-71
2023/07/23 02:34:11;;;;;;;32.53;18.98;;;;;;;;;;5021852;28;20048;-70
2023/07/23 02:36:36;;;;;;;37.58;20.20;;;;;;;;;;5020467;28;20033;-71
2023/07/23 02:39:04;;;;;;;42.95;21.55;;;;;;;;;;5004112;28;20163;-72
2023/07/23 02:41:29;;;;;;;37.35;20.00;;;;;;;;;;5021939;28;20020;-71
2023/07/23 02:43:54;;;;;;;39.65;21.65;;;;;;;;;;5018525;28;20092;-71
2023/07/23 02:46:24;;;;;;;47.70;25.33;;;;;;;;;;5020219;28;20040;-73
2023/07/23 02:48:49;;;;;;;33.85;18.20;;;;;;;;;;5021996;28;20210;-72
2023/07/23 02:51:18;;;;;;;30.92;16.80;;;;;;;;;;5020430;28;20072;-72
2023/07/23 02:53:43;;;;;;;31.00;16.58;;;;;;;;;;5023237;28;20048;-72
2023/07/23 02:56:11;;;;;;;28.95;16.33;;;;;;;;;;5020646;28;20040;-71
2023/07/23 02:58:36;;;;;;;41.28;21.02;;;;;;;;;;5053107;28;20041;-71
2023/07/23 03:01:01;;;;;;;44.60;22.15;;;;;;;;;;5021987;28;22289;-72
2023/07/23 03:03:27;;;;;;;54.25;24.80;;;;;;;;;;5022825;28;20029;-72
2023/07/23 03:05:52;;;;;;;46.75;22.23;;;;;;;;;;5019133;28;20030;-72
2023/07/23 03:08:17;;;;;;;48.47;22.90;;;;;;;;;;5020974;28;20032;-72
2023/07/23 03:10:43;;;;;;;67.70;29.67;;;;;;;;;;5021225;28;20160;-70
2023/07/23 03:13:09;;;;;;;78.60;33.55;;;;;;;;;;5022631;28;20040;-72
2023/07/23 03:15:37;;;;;;;79.60;32.10;;;;;;;;;;5004838;28;20040;-72
2023/07/23 03:18:05;;;;;;;33.40;16.38;;;;;;;;;;5051732;28;20378;-72
2023/07/23 03:20:30;;;;;;;36.22;16.75;;;;;;;;;;5021174;28;20847;-72
2023/07/23 03:22:56;;;;;;;36.78;16.63;;;;;;;;;;5051685;28;20037;-72
2023/07/23 03:25:22;;;;;;;39.95;19.42;;;;;;;;;;5036103;28;20057;-72
2023/07/23 03:27:47;;;;;;;36.15;18.45;;;;;;;;;;5002031;28;20913;-73
2023/07/23 03:30:15;;;;;;;37.70;18.10;;;;;;;;;;5037125;28;20201;-72
2023/07/23 03:32:40;;;;;;;51.85;21.38;;;;;;;;;;5016098;28;22281;-71
2023/07/23 03:35:06;;;;;;;67.10;27.35;;;;;;;;;;5000798;28;20053;-74
2023/07/23 03:37:31;;;;;;;75.72;32.55;;;;;;;;;;5017020;28;20581;-72
2023/07/23 03:39:56;;;;;;;91.43;36.13;;;;;;;;;;4985331;28;20457;-70
2023/07/23 03:42:27;;;;;;;72.90;32.65;;;;;;;;;;5032881;28;20037;-73
2023/07/23 03:44:54;;;;;;;72.45;30.60;;;;;;;;;;5015804;28;20158;-71
2023/07/23 03:47:20;;;;;;;82.22;32.05;;;;;;;;;;5016123;28;21061;-72
2023/07/23 03:49:46;;;;;;;70.30;29.55;;;;;;;;;;5020775;28;20061;-70
2023/07/23 03:52:14;;;;;;;77.15;29.67;;;;;;;;;;5022290;28;20116;-72
2023/07/23 03:54:39;;;;;;;85.78;34.30;;;;;;;;;;5019772;28;22181;-73
2023/07/23 03:57:05;;;;;;;60.95;27.33;;;;;;;;;;5036637;28;20086;-71
2023/07/23 03:59:34;;;;;;;75.97;31.40;;;;;;;;;;5018183;28;20145;-71
2023/07/23 04:01:59;;;;;;;81.05;31.67;;;;;;;;;;5021400;28;20028;-71
2023/07/23 04:04:24;;;;;;;78.25;31.83;;;;;;;;;;5021385;28;20050;-70
2023/07/23 04:06:50;;;;;;;85.25;34.80;;;;;;;;;;5020731;28;20037;-72
2023/07/23 04:09:18;;;;;;;84.25;35.05;;;;;;;;;;5021007;28;20063;-72
2023/07/23 04:11:43;;;;;;;75.75;30.98;;;;;;;;;;5034639;28;20037;-72
2023/07/23 04:14:08;;;;;;;85.10;32.67;;;;;;;;;;5020848;28;20029;-72
2023/07/23 04:16:34;;;;;;;77.68;33.20;;;;;;;;;;5019854;28;20037;-73
2023/07/23 04:18:59;;;;;;;91.07;33.58;;;;;;;;;;5020787;28;20242;-72
2023/07/23 04:21:25;;;;;;;92.80;36.58;;;;;;;;;;5019615;28;20044;-71
2023/07/23 04:23:51;;;;;;;79.25;34.88;;;;;;;;;;5035982;28;20033;-73
2023/07/23 04:26:21;;;;;;;67.30;28.48;;;;;;;;;;5035243;28;22244;-73
2023/07/23 04:28:47;;;;;;;51.53;23.92;;;;;;;;;;5020272;28;20037;-71
2023/07/23 04:31:12;;;;;;;76.32;30.90;;;;;;;;;;5019892;28;20033;-73
2023/07/23 04:33:37;;;;;;;70.40;28.90;;;;;;;;;;5018508;28;20033;-73
2023/07/23 04:36:03;;;;;;;70.82;28.98;;;;;;;;;;5020786;28;20034;-71
2023/07/23 04:38:29;;;;;;;67.35;29.10;;;;;;;;;;5018747;28;20036;-73
2023/07/23 04:40:54;;;;;;;86.47;30.85;;;;;;;;;;5038627;28;20115;-74
2023/07/23 04:43:19;;;;;;;47.70;22.85;;;;;;;;;;5019966;28;20804;-72
2023/07/23 04:45:45;;;;;;;63.08;27.77;;;;;;;;;;5018447;28;20159;-71
2023/07/23 04:48:12;;;;;;;77.05;29.92;;;;;;;;;;5018268;28;20448;-74
2023/07/23 04:50:40;;;;;;;43.20;20.70;;;;;;;;;;5018486;28;22320;-72
2023/07/23 04:53:05;;;;;;;33.15;18.17;;;;;;;;;;5014244;28;20033;-71
2023/07/23 04:55:34;;;;;;;38.35;20.92;;;;;;;;;;5020485;28;20047;-72
2023/07/23 04:58:02;;;;;;;35.22;20.35;;;;;;;;;;5018706;28;20072;-72
2023/07/23 05:00:28;;;;;;;43.17;25.23;;;;;;;;;;5018160;28;20128;-72
2023/07/23 05:02:53;;;;;;;34.13;21.33;;;;;;;;;;5016631;28;20038;-72
2023/07/23 05:05:18;;;;;;;31.80;17.88;;;;;;;;;;5016532;28;20116;-72
2023/07/23 05:07:44;;;;;;;35.25;17.52;;;;;;;;;;5019130;28;20042;-74
2023/07/23 05:10:09;;;;;;;28.40;16.00;;;;;;;;;;5020914;28;20055;-71
2023/07/23 05:12:35;;;;;;;25.60;15.75;;;;;;;;;;5018293;28;20060;-73
2023/07/23 05:15:10;;;;;;;31.02;16.67;;;;;;;;;;5019787;28;20555;-74
2023/07/23 05:17:36;;;;;;;24.73;15.15;;;;;;;;;;5016472;28;20041;-72
2023/07/23 05:20:06;;;;;;;33.05;16.00;;;;;;;;;;5016387;28;20041;-71
2023/07/23 05:22:31;;;;;;;42.60;12.52;;;;;;;;;;5016510;28;20128;-70
2023/07/23 05:24:59;;;;;;;37.15;12.73;;;;;;;;;;5013328;28;20774;-70
2023/07/23 05:27:26;;;;;;;40.97;12.88;;;;;;;;;;5011395;28;20029;-75
2023/07/23 05:29:51;;;;;;;37.17;13.23;;;;;;;;;;5017084;28;20067;-67
2023/07/23 05:32:21;;;;;;;43.42;12.73;;;;;;;;;;5017440;28;20098;-68
2023/07/23 05:34:46;;;;;;;44.25;12.50;;;;;;;;;;5016031;28;20150;-68
2023/07/23 05:37:12;;;;;;;45.00;12.38;;;;;;;;;;5016093;28;20036;-69
2023/07/23 05:39:37;;;;;;;34.95;12.43;;;;;;;;;;5018494;28;20033;-72
2023/07/23 05:42:05;;;;;;;33.40;15.43;;;;;;;;;;5019222;28;20037;-66
2023/07/23 05:44:30;;;;;;;40.90;13.15;;;;;;;;;;5017234;28;20095;-69
2023/07/23 05:46:56;;;;;;;39.15;12.90;;;;;;;;;;5017539;28;20055;-69
2023/07/23 05:49:21;;;;;;;28.38;12.32;;;;;;;;;;5018394;28;20045;-70
2023/07/23 05:51:47;;;;;;;38.38;15.02;;;;;;;;;;5046561;28;20042;-66
2023/07/23 05:54:12;;;;;;;34.95;15.57;;;;;;;;;;5016113;28;20481;-70
2023/07/23 05:56:40;;;;;;;33.65;13.80;;;;;;;;;;5009072;28;20067;-71
2023/07/23 05:59:05;;;;;;;36.22;15.00;;;;;;;;;;5015737;28;20037;-67
2023/07/23 06:01:30;;;;;;;37.83;16.25;;;;;;;;;;5017175;28;20481;-68
2023/07/23 06:03:56;;;;;;;36.55;16.42;;;;;;;;;;5018122;28;20051;-68
2023/07/23 06:06:22;;;;;;;39.58;16.77;;;;;;;;;;5017318;28;20080;-68
2023/07/23 06:08:47;;;;;;;31.75;14.85;;;;;;;;;;5029436;28;21080;-69
2023/07/23 06:11:13;;;;;;;33.55;15.57;;;;;;;;;;5016939;28;20029;-68
2023/07/23 06:13:38;;;;;;;33.83;15.48;;;;;;;;;;5015301;28;20120;-69
2023/07/23 06:16:03;;;;;;;32.15;14.95;;;;;;;;;;5003575;28;20384;-70
2023/07/23 06:18:29;;;;;;;32.45;15.27;;;;;;;;;;5000528;28;20065;-70
2023/07/23 06:20:54;;;;;;;34.33;15.20;;;;;;;;;;5011271;28;20124;-67
2023/07/23 06:23:19;;;;;;;40.60;15.85;;;;;;;;;;5014744;28;20046;-69
2023/07/23 06:25:45;;;;;;;30.70;15.55;;;;;;;;;;4993436;28;20144;-69
2023/07/23 06:28:10;;;;;;;33.58;15.55;;;;;;;;;;4997463;28;20041;-70
2023/07/23 06:30:36;;;;;;;34.80;16.73;;;;;;;;;;4993363;28;20048;-71
2023/07/23 06:33:01;;;;;;;30.55;14.55;;;;;;;;;;4996832;28;20037;-71
2023/07/23 06:35:26;;;;;;;31.52;14.55;;;;;;;;;;4996252;28;20620;-69
2023/07/23 06:37:51;;;;;;;34.00;15.02;;;;;;;;;;4998041;28;20033;-68
2023/07/23 06:40:17;;;;;;;25.70;14.10;;;;;;;;;;4995963;28;20108;-72
2023/07/23 06:42:42;;;;;;;33.58;15.82;;;;;;;;;;4995572;28;20061;-67
2023/07/23 06:45:08;;;;;;;33.78;17.10;;;;;;;;;;5030526;28;20035;-67
2023/07/23 06:47:34;;;;;;;31.90;14.13;;;;;;;;;;5000531;28;20786;-67
2023/07/23 06:50:00;;;;;;;30.73;15.65;;;;;;;;;;5027699;28;20071;-68
2023/07/23 06:52:25;;;;;;;30.50;15.23;;;;;;;;;;5032635;28;21014;-68
2023/07/23 06:54:51;;;;;;;28.83;15.13;;;;;;;;;;5000262;28;20034;-68
2023/07/23 06:57:16;;;;;;;28.23;13.95;;;;;;;;;;5018239;28;20037;-68
2023/07/23 06:59:41;;;;;;;35.10;15.68;;;;;;;;;;5020170;28;20041;-69
2023/07/23 07:02:09;;;;;;;31.63;13.95;;;;;;;;;;5014588;28;20160;-69
2023/07/23 07:04:34;;;;;;;25.42;11.60;;;;;;;;;;5001570;28;20095;-68
2023/07/23 07:07:00;;;;;;;23.63;11.68;;;;;;;;;;5000976;28;20029;-68
2023/07/23 07:09:25;;;;;;;28.25;11.73;;;;;;;;;;5001227;28;20053;-69
2023/07/23 07:11:51;;;;;;;28.95;12.82;;;;;;;;;;5021000;28;20048;-67
2023/07/23 07:14:16;;;;;;;26.20;11.60;;;;;;;;;;5016589;28;20707;-70
2023/07/23 07:16:41;;;;;;;22.95;10.57;;;;;;;;;;5018808;28;20091;-68
2023/07/23 07:19:06;;;;;;;22.45;11.60;;;;;;;;;;5031612;28;20128;-68
2023/07/23 07:21:32;;;;;;;21.67;10.65;;;;;;;;;;5015626;28;20155;-69
2023/07/23 07:23:57;;;;;;;27.90;13.65;;;;;;;;;;5014864;28;20150;-73
2023/07/23 07:26:25;;;;;;;27.92;14.27;;;;;;;;;;5015170;28;20041;-71
2023/07/23 07:28:51;;;;;;;34.67;14.95;;;;;;;;;;5015004;28;20029;-72
2023/07/23 07:31:17;;;;;;;26.23;14.32;;;;;;;;;;5018310;28;20768;-70
2023/07/23 07:33:43;;;;;;;32.95;14.40;;;;;;;;;;5015509;28;20029;-72
2023/07/23 07:36:09;;;;;;;30.52;14.32;;;;;;;;;;5017108;28;21036;-69
2023/07/23 07:38:35;;;;;;;32.95;14.75;;;;;;;;;;5010096;28;20029;-70
2023/07/23 07:41:01;;;;;;;31.48;13.75;;;;;;;;;;5036624;28;20685;-70
2023/07/23 07:43:26;;;;;;;31.50;14.30;;;;;;;;;;5003410;28;21009;-74
2023/07/23 07:45:54;;;;;;;28.58;12.63;;;;;;;;;;4996515;28;20045;-70
2023/07/23 07:48:20;;;;;;;26.33;12.85;;;;;;;;;;4995603;28;20033;-73
2023/07/23 07:50:48;;;;;;;26.67;13.77;;;;;;;;;;5000833;28;20049;-75
2023/07/23 07:53:14;;;;;;;20.52;11.20;;;;;;;;;;5012802;28;20040;-70
2023/07/23 07:55:40;;;;;;;25.45;13.95;;;;;;;;;;5013833;28;20055;-74
2023/07/23 07:58:06;;;;;;;22.58;11.10;;;;;;;;;;5020250;28;20039;-71
2023/07/23 08:00:31;;;;;;;22.48;11.32;;;;;;;;;;5013242;28;20037;-74
2023/07/23 08:02:57;;;;;;;25.23;12.27;;;;;;;;;;5006875;28;20068;-74
2023/07/23 08:05:23;;;;;;;29.92;12.85;;;;;;;;;;5017381;28;20063;-73
2023/07/23 08:07:49;;;;;;;25.98;10.13;;;;;;;;;;5016158;28;20029;-75
2023/07/23 08:10:17;;;;;;;26.95;12.77;;;;;;;;;;5015760;28;20092;-76
2023/07/23 08:12:43;;;;;;;25.05;11.63;;;;;;;;;;5009677;28;20041;-74
2023/07/23 08:15:09;;;;;;;24.15;11.35;;;;;;;;;;5010929;28;20413;-71
2023/07/23 08:17:34;;;;;;;27.50;11.82;;;;;;;;;;4993234;28;20048;-72
2023/07/23 08:20:00;;;;;;;22.48;11.20;;;;;;;;;;5023206;28;20034;-74
2023/07/23 08:22:26;;;;;;;21.92;11.75;;;;;;;;;;5011313;28;20056;-74
2023/07/23 08:24:51;;;;;;;23.55;11.30;;;;;;;;;;4999374;28;20033;-76
2023/07/23 08:27:23;;;;;;;23.55;10.68;;;;;;;;;;5018344;28;20044;-75
2023/07/23 08:29:48;;;;;;;21.10;10.18;;;;;;;;;;5015719;28;20045;-75
2023/07/23 08:32:16;;;;;;;15.38;9.20;;;;;;;;;;5012331;28;20052;-75
2023/07/23 08:34:46;;;;;;;18.63;8.82;;;;;;;;;;5005839;28;20064;-71
2023/07/23 08:37:11;;;;;;;19.05;10.32;;;;;;;;;;5023974;28;20037;-75
2023/07/23 08:39:37;;;;;;;19.75;8.15;;;;;;;;;;5024093;28;20080;-75
2023/07/23 08:42:38;;;;;;;19.67;7.43;;;;;;;;;;5011591;28;20040;-75
2023/07/23 08:45:27;;;;;;;21.30;9.75;;;;;;;;;;4920755;28;20039;-74
2023/07/23 08:48:02;;;;;;;16.63;8.65;;;;;;;;;;4981629;28;20045;-78
2023/07/23 08:50:28;;;;;;;18.63;7.65;;;;;;;;;;5014567;28;20604;-76
2023/07/23 08:52:53;;;;;;;19.17;9.60;;;;;;;;;;5005937;28;20036;-75
2023/07/23 08:55:18;;;;;;;18.20;8.18;;;;;;;;;;5023795;28;20044;-78
2023/07/23 08:57:44;;;;;;;15.95;7.55;;;;;;;;;;5015400;28;20422;-77
2023/07/23 09:00:09;;;;;;;18.55;8.20;;;;;;;;;;5018632;28;20141;-77
2023/07/23 09:02:36;;;;;;;19.33;9.98;;;;;;;;;;5032410;28;20037;-79
2023/07/23 09:05:01;;;;;;;14.18;7.70;;;;;;;;;;5044074;28;20041;-75
2023/07/23 09:07:30;;;;;;;20.33;9.35;;;;;;;;;;5014451;28;20033;-74
2023/07/23 09:09:55;;;;;;;18.83;8.90;;;;;;;;;;5030964;28;20515;-73
2023/07/23 09:12:20;;;;;;;23.75;9.68;;;;;;;;;;5017712;28;20041;-74
2023/07/23 09:14:46;;;;;;;12.68;6.63;;;;;;;;;;5014403;28;20629;-74
2023/07/23 09:17:19;;;;;;;22.92;7.90;;;;;;;;;;5016868;28;20145;-73
2023/07/23 09:19:44;;;;;;;18.42;9.43;;;;;;;;;;5021249;28;20104;-72
2023/07/23 09:22:10;;;;;;;15.43;7.75;;;;;;;;;;5015147;28;20035;-75
2023/07/23 09:24:36;;;;;;;17.13;7.50;;;;;;;;;;5012750;28;20091;-72
2023/07/23 09:27:02;;;;;;;21.45;9.80;;;;;;;;;;5013113;28;20533;-72
2023/07/23 09:29:38;;;;;;;14.55;6.82;;;;;;;;;;5014602;28;20076;-74
2023/07/23 09:32:04;;;;;;;20.52;7.50;;;;;;;;;;5013111;28;20628;-74
2023/07/23 09:34:29;;;;;;;17.60;9.20;;;;;;;;;;5044877;28;20033;-73
2023/07/23 09:36:57;;;;;;;16.80;9.38;;;;;;;;;;5015069;28;20035;-73
2023/07/23 09:39:25;;;;;;;20.90;8.10;;;;;;;;;;5022603;28;20420;-71
2023/07/23 09:41:54;;;;;;;18.25;8.20;;;;;;;;;;5026899;28;20033;-72
2023/07/23 09:44:23;;;;;;;22.35;10.45;;;;;;;;;;5029480;28;20033;-73
2023/07/23 09:46:51;;;;;;;17.20;8.20;;;;;;;;;;5014866;28;20183;-73
2023/07/23 09:49:22;;;;;;;20.45;8.90;;;;;;;;;;5014400;28;20497;-72
2023/07/23 09:51:51;;;;;;;21.02;9.02;;;;;;;;;;5012836;28;20654;-74
2023/07/23 09:54:22;;;;;;;18.05;10.30;;;;;;;;;;5005545;28;20482;-75
2023/07/23 09:56:49;;;;;;;19.83;8.85;;;;;;;;;;4999913;28;20305;-73
2023/07/23 09:59:15;;;;;;;17.75;7.20;;;;;;;;;;5025348;28;20033;-70
2023/07/23 10:01:40;;;;;;;16.70;8.55;;;;;;;;;;4988234;28;20061;-70
2023/07/23 10:04:06;;;;;;;19.35;7.20;;;;;;;;;;5029022;28;20044;-75
2023/07/23 10:06:31;;;;;;;16.50;7.47;;;;;;;;;;5027348;28;20494;-73
2023/07/23 10:08:57;;;;;;;14.30;7.72;;;;;;;;;;5009848;28;20045;-74
2023/07/23 10:11:24;;;;;;;18.77;9.88;;;;;;;;;;5013716;28;20041;-72
2023/07/23 10:13:51;;;;;;;19.48;9.15;;;;;;;;;;5015729;28;20818;-72
2023/07/23 10:16:27;;;;;;;15.15;8.80;;;;;;;;;;5006647;28;22104;-74
2023/07/23 10:18:54;;;;;;;19.20;10.48;;;;;;;;;;5032502;28;20057;-71
2023/07/23 10:21:19;;;;;;;16.45;9.43;;;;;;;;;;5020319;28;20389;-73
2023/07/23 10:23:55;;;;;;;16.90;9.43;;;;;;;;;;5019550;28;20491;-73
2023/07/23 10:26:25;;;;;;;19.15;8.77;;;;;;;;;;5020400;28;20045;-75
2023/07/23 10:28:56;;;;;;;17.38;7.63;;;;;;;;;;5050091;28;20041;-74
2023/07/23 10:31:23;;;;;;;14.85;6.72;;;;;;;;;;5019362;28;20520;-74
2023/07/23 10:33:51;;;;;;;13.30;6.50;;;;;;;;;;5020600;28;20029;-76
2023/07/23 10:36:16;;;;;;;15.80;6.00;;;;;;;;;;5018760;28;20393;-75
2023/07/23 10:38:42;;;;;;;14.20;6.25;;;;;;;;;;5020435;28;20029;-74
2023/07/23 10:41:07;;;;;;;16.30;6.13;;;;;;;;;;5021804;28;20044;-75
2023/07/23 10:43:41;;;;;;;16.27;6.50;;;;;;;;;;5034889;28;20088;-77
2023/07/23 10:46:26;;;;;;;13.70;5.90;;;;;;;;;;5028437;28;22407;-74
2023/07/23 10:48:55;;;;;;;15.65;6.32;;;;;;;;;;4999992;28;20040;-75
2023/07/23 10:51:24;;;;;;;15.13;7.28;;;;;;;;;;5018741;28;20039;-77
2023/07/23 10:54:01;;;;;;;13.68;6.38;;;;;;;;;;5024174;28;22215;-76
2023/07/23 10:56:27;;;;;;;11.23;5.45;;;;;;;;;;5021388;28;20125;-75
2023/07/23 10:58:57;;;;;;;14.25;5.38;;;;;;;;;;5015644;28;20568;-75
2023/07/23 11:01:23;;;;;;;10.75;4.75;;;;;;;;;;4999539;28;20040;-79
2023/07/23 11:03:49;;;;;;;10.32;4.43;;;;;;;;;;5020524;28;20413;-78
2023/07/23 11:06:35;;;;;;;11.70;3.63;;;;;;;;;;5016016;28;20167;-77
2023/07/23 11:09:04;;;;;;;13.10;4.10;;;;;;;;;;5043280;28;20037;-76
2023/07/23 11:11:37;;;;;;;16.23;4.75;;;;;;;;;;5035699;28;20079;-73
2023/07/23 11:14:03;;;;;;;16.52;5.18;;;;;;;;;;4992802;28;20034;-75
2023/07/23 11:16:29;;;;;;;24.30;6.00;;;;;;;;;;5005064;28;20040;-72
2023/07/23 11:18:54;;;;;;;29.05;7.63;;;;;;;;;;5010445;28;20144;-73
2023/07/23 11:21:20;;;;;;;20.38;7.05;;;;;;;;;;5015928;28;20094;-71
2023/07/23 11:23:46;;;;;;;25.30;7.30;;;;;;;;;;5014570;28;20069;-72
2023/07/23 11:26:16;;;;;;;20.98;7.47;;;;;;;;;;5016341;28;20067;-74
2023/07/23 11:28:41;;;;;;;27.98;8.57;;;;;;;;;;5015557;28;20935;-74
2023/07/23 11:31:07;;;;;;;24.63;6.95;;;;;;;;;;5011739;28;20060;-75
2023/07/23 11:33:33;;;;;;;29.27;8.90;;;;;;;;;;5014153;28;20036;-76
2023/07/23 11:36:01;;;;;;;30.33;8.23;;;;;;;;;;5014421;28;20048;-75
2023/07/23 11:38:27;;;;;;;32.20;9.27;;;;;;;;;;5009537;28;20041;-76
2023/07/23 11:40:53;;;;;;;27.10;8.80;;;;;;;;;;5016400;28;20545;-78
2023/07/23 11:43:18;;;;;;;28.98;7.32;;;;;;;;;;5026462;28;20028;-75
2023/07/23 11:45:44;;;;;;;22.40;7.32;;;;;;;;;;5024601;28;20036;-77
2023/07/23 11:48:16;;;;;;;26.25;8.00;;;;;;;;;;5022395;28;20589;-77
2023/07/23 11:50:42;;;;;;;21.50;7.10;;;;;;;;;;5002205;28;20063;-76
2023/07/23 11:53:07;;;;;;;18.65;6.68;;;;;;;;;;5016783;28;20517;-74
2023/07/23 11:55:33;;;;;;;32.25;7.85;;;;;;;;;;5014761;28;20079;-75
2023/07/23 11:57:59;;;;;;;26.25;6.70;;;;;;;;;;5014036;28;20447;-75
2023/07/23 12:00:30;;;;;;;19.63;5.53;;;;;;;;;;5015283;28;20699;-73
2023/07/23 12:02:59;;;;;;;26.83;6.38;;;;;;;;;;5013570;28;20037;-73
2023/07/23 12:05:24;;;;;;;24.33;6.20;;;;;;;;;;5011834;28;20351;-73
2023/07/23 12:07:53;;;;;;;28.25;6.75;;;;;;;;;;5012979;28;20131;-72
2023/07/23 12:10:21;;;;;;;28.42;6.43;;;;;;;;;;5010521;28;22407;-75
2023/07/23 12:12:47;;;;;;;25.48;6.40;;;;;;;;;;5012744;28;20037;-76
2023/07/23 12:15:14;;;;;;;24.38;6.97;;;;;;;;;;5011863;28;20045;-72
2023/07/23 12:17:39;;;;;;;22.60;5.45;;;;;;;;;;5005918;28;20061;-72
2023/07/23 12:20:05;;;;;;;22.33;5.55;;;;;;;;;;5011547;28;20094;-73
2023/07/23 12:22:30;;;;;;;22.33;5.93;;;;;;;;;;5010242;28;20042;-73
2023/07/23 12:24:56;;;;;;;26.15;7.43;;;;;;;;;;5006903;28;20051;-75
2023/07/23 12:27:21;;;;;;;24.02;5.75;;;;;;;;;;4992646;28;20345;-73
2023/07/23 12:29:50;;;;;;;24.48;5.53;;;;;;;;;;5011116;28;20580;-73
2023/07/23 12:32:16;;;;;;;21.13;5.78;;;;;;;;;;5035354;28;20043;-71
2023/07/23 12:34:43;;;;;;;25.00;6.53;;;;;;;;;;5020254;28;20410;-74
2023/07/23 12:37:11;;;;;;;20.63;6.32;;;;;;;;;;5018073;28;20463;-73
2023/07/23 12:39:36;;;;;;;20.38;5.13;;;;;;;;;;5048868;28;20037;-75
2023/07/23 12:42:02;;;;;;;25.83;6.88;;;;;;;;;;5018555;28;20095;-77
2023/07/23 12:44:29;;;;;;;18.70;4.80;;;;;;;;;;5012948;28;20048;-74
2023/07/23 12:46:54;;;;;;;21.75;5.80;;;;;;;;;;5040359;28;21843;-72
2023/07/23 12:49:20;;;;;;;16.10;5.00;;;;;;;;;;5022178;28;20042;-74
2023/07/23 12:51:47;;;;;;;21.88;4.95;;;;;;;;;;4998408;28;20047;-72
2023/07/23 12:54:15;;;;;;;21.85;4.65;;;;;;;;;;5028309;28;20116;-74
2023/07/23 12:56:41;;;;;;;23.52;5.40;;;;;;;;;;4999479;28;20034;-76
2023/07/23 12:59:06;;;;;;;26.75;5.40;;;;;;;;;;5046477;28;20532;-74
2023/07/23 13:01:31;;;;;;;23.70;5.40;;;;;;;;;;5002675;28;20041;-74
2023/07/23 13:03:57;;;;;;;22.45;5.18;;;;;;;;;;5002100;28;20036;-75
2023/07/23 13:06:22;;;;;;;22.65;5.07;;;;;;;;;;5015602;28;20127;-74
2023/07/23 13:08:50;;;;;;;20.65;4.93;;;;;;;;;;5016408;28;20060;-72
2023/07/23 13:11:15;;;;;;;22.00;5.00;;;;;;;;;;5016134;28;20262;-73
2023/07/23 13:13:41;;;;;;;17.25;4.47;;;;;;;;;;5017924;28;20108;-73
2023/07/23 13:16:09;;;;;;;28.00;4.75;;;;;;;;;;5008831;28;20108;-75
2023/07/23 13:18:37;;;;;;;21.83;4.82;;;;;;;;;;5031172;28;20041;-69
2023/07/23 13:21:05;;;;;;;23.08;4.85;;;;;;;;;;5015765;28;20057;-71
2023/07/23 13:23:30;;;;;;;24.10;5.07;;;;;;;;;;5014993;28;20044;-73
2023/07/23 13:25:56;;;;;;;20.60;4.88;;;;;;;;;;5016551;28;20206;-73
2023/07/23 13:28:21;;;;;;;20.05;4.70;;;;;;;;;;5017559;28;25284;-71
2023/07/23 13:30:46;;;;;;;15.30;4.35;;;;;;;;;;5017212;28;20045;-72
2023/07/23 13:33:12;;;;;;;23.38;5.07;;;;;;;;;;5015415;28;20033;-71
2023/07/23 13:35:37;;;;;;;20.90;5.38;;;;;;;;;;5016933;28;20033;-73
2023/07/23 13:38:06;;;;;;;22.35;4.40;;;;;;;;;;5017472;28;20119;-72
2023/07/23 13:40:34;;;;;;;21.67;4.85;;;;;;;;;;5010832;28;20068;-75
2023/07/23 13:43:02;;;;;;;26.85;8.18;;;;;;;;;;5045700;28;20687;-72
2023/07/23 13:45:27;;;;;;;29.67;11.63;;;;;;;;;;5017403;28;20060;-70
2023/07/23 13:47:53;;;;;;;59.92;34.47;;;;;;;;;;5014316;28;20832;-72
2023/07/23 13:50:18;;;;;;;21.63;7.80;;;;;;;;;;5049259;28;20040;-73
2023/07/23 13:52:43;;;;;;;22.05;5.22;;;;;;;;;;5015557;28;20036;-73
2023/07/23 13:55:09;;;;;;;21.50;5.20;;;;;;;;;;5052789;28;20124;-73
2023/07/23 13:57:34;;;;;;;22.98;5.13;;;;;;;;;;5012428;28;20043;-71
2023/07/23 14:00:01;;;;;;;20.45;5.25;;;;;;;;;;5020627;28;20042;-70
2023/07/23 14:02:27;;;;;;;21.92;4.80;;;;;;;;;;5020609;28;20041;-72
2023/07/23 14:04:54;;;;;;;22.05;5.28;;;;;;;;;;5049985;28;20231;-72
2023/07/23 14:07:19;;;;;;;26.88;7.07;;;;;;;;;;5020938;28;20032;-72
2023/07/23 14:09:45;;;;;;;21.20;6.15;;;;;;;;;;5015124;28;20119;-69
2023/07/23 14:12:10;;;;;;;24.52;5.60;;;;;;;;;;5021120;28;20033;-71
2023/07/23 14:14:35;;;;;;;20.77;5.10;;;;;;;;;;5050650;28;20086;-72
2023/07/23 14:17:01;;;;;;;25.25;6.28;;;;;;;;;;5019812;28;20044;-71